sensor_id;sensor_type;location;lat;lon;timestamp;P1;durP1;ratioP1;P2;durP2;ratioP2
22711;SDS011;11523;50.390;8.072;2023-04-03T02:30:12;3.92;;;2.42;;
22711;SDS011;11523;50.390;8.072;2023-04-03T02:32:44;3.90;;;2.53;;
22711;SDS011;11523;50.390;8.072;2023-04-03T02:35:10;2.75;;;2.28;;
22711;SDS011;11523;50.390;8.072;2023-04-03T02:37:36;4.22;;;2.40;;
22711;SDS011;11523;50.390;8.072;2023-04-03T02:40:02;4.45;;;2.28;;
22711;SDS011;11523;50.390;8.072;2023-04-03T02:42:29;3.30;;;2.55;;
22711;SDS011;11523;50.390;8.072;2023-04-03T02:44:55;4.65;;;2.40;;
22711;SDS011;11523;50.390;8.072;2023-04-03T02:47:21;3.25;;;2.30;;
22711;SDS011;11523;50.390;8.072;2023-04-03T02:49:47;3.97;;;2.40;;
22711;SDS011;11523;50.390;8.072;2023-04-03T02:52:13;4.43;;;2.60;;
22711;SDS011;11523;50.390;8.072;2023-04-03T02:54:39;3.63;;;2.35;;
22711;SDS011;11523;50.390;8.072;2023-04-03T02:57:05;5.07;;;2.45;;
22711;SDS011;11523;50.390;8.072;2023-04-03T02:59:33;4.15;;;2.30;;
22711;SDS011;11523;50.390;8.072;2023-04-03T03:01:59;5.03;;;2.35;;
22711;SDS011;11523;50.390;8.072;2023-04-03T03:04:25;4.70;;;2.65;;
22711;SDS011;11523;50.390;8.072;2023-04-03T03:06:51;3.38;;;2.30;;
22711;SDS011;11523;50.390;8.072;2023-04-03T03:09:17;3.22;;;2.60;;
22711;SDS011;11523;50.390;8.072;2023-04-03T03:11:43;4.13;;;2.30;;
22711;SDS011;11523;50.390;8.072;2023-04-03T03:14:09;4.57;;;2.53;;
22711;SDS011;11523;50.390;8.072;2023-04-03T03:16:35;4.43;;;2.58;;
22711;SDS011;11523;50.390;8.072;2023-04-03T03:19:01;4.45;;;2.28;;
22711;SDS011;11523;50.390;8.072;2023-04-03T03:21:28;3.92;;;2.85;;
22711;SDS011;11523;50.390;8.072;2023-04-03T03:23:53;4.22;;;2.03;;
22711;SDS011;11523;50.390;8.072;2023-04-03T03:26:20;5.05;;;2.60;;
22711;SDS011;11523;50.390;8.072;2023-04-03T03:28:46;3.90;;;2.10;;
22711;SDS011;11523;50.390;8.072;2023-04-03T03:31:12;3.30;;;1.92;;
22711;SDS011;11523;50.390;8.072;2023-04-03T03:33:38;3.88;;;2.05;;
22711;SDS011;11523;50.390;8.072;2023-04-03T03:36:04;3.38;;;1.77;;
22711;SDS011;11523;50.390;8.072;2023-04-03T03:38:30;3.10;;;1.50;;
22711;SDS011;11523;50.390;8.072;2023-04-03T03:40:56;3.72;;;1.42;;
22711;SDS011;11523;50.390;8.072;2023-04-03T03:43:22;1.90;;;1.15;;
22711;SDS011;11523;50.390;8.072;2023-04-03T03:45:51;3.90;;;1.38;;
22711;SDS011;11523;50.390;8.072;2023-04-03T03:48:18;4.53;;;1.42;;
22711;SDS011;11523;50.390;8.072;2023-04-03T03:50:45;4.82;;;1.75;;
22711;SDS011;11523;50.390;8.072;2023-04-03T03:53:11;3.28;;;1.40;;
22711;SDS011;11523;50.390;8.072;2023-04-03T03:55:37;4.97;;;1.67;;
22711;SDS011;11523;50.390;8.072;2023-04-03T03:58:03;4.30;;;1.40;;
22711;SDS011;11523;50.390;8.072;2023-04-03T04:00:28;3.03;;;1.40;;
22711;SDS011;11523;50.390;8.072;2023-04-03T04:02:55;4.05;;;1.48;;
22711;SDS011;11523;50.390;8.072;2023-04-03T04:05:21;3.40;;;1.20;;
22711;SDS011;11523;50.390;8.072;2023-04-03T04:07:47;4.55;;;1.50;;
22711;SDS011;11523;50.390;8.072;2023-04-03T04:10:13;3.25;;;1.30;;
22711;SDS011;11523;50.390;8.072;2023-04-03T04:12:39;2.33;;;1.38;;
22711;SDS011;11523;50.390;8.072;2023-04-03T04:15:05;3.20;;;1.45;;
22711;SDS011;11523;50.390;8.072;2023-04-03T04:17:31;4.38;;;1.70;;
22711;SDS011;11523;50.390;8.072;2023-04-03T04:19:57;3.58;;;1.60;;
22711;SDS011;11523;50.390;8.072;2023-04-03T04:22:23;5.72;;;1.60;;
22711;SDS011;11523;50.390;8.072;2023-04-03T04:24:49;3.17;;;1.50;;
22711;SDS011;11523;50.390;8.072;2023-04-03T04:27:15;2.88;;;1.50;;
22711;SDS011;11523;50.390;8.072;2023-04-03T04:29:41;3.72;;;1.58;;
22711;SDS011;11523;50.390;8.072;2023-04-03T04:32:07;4.07;;;1.70;;
22711;SDS011;11523;50.390;8.072;2023-04-03T04:34:33;2.95;;;1.60;;
22711;SDS011;11523;50.390;8.072;2023-04-03T04:37:00;5.05;;;1.77;;
22711;SDS011;11523;50.390;8.072;2023-04-03T04:39:25;5.30;;;1.65;;
22711;SDS011;11523;50.390;8.072;2023-04-03T04:41:51;3.15;;;1.33;;
22711;SDS011;11523;50.390;8.072;2023-04-03T04:44:17;4.20;;;1.67;;
22711;SDS011;11523;50.390;8.072;2023-04-03T04:46:43;5.05;;;1.65;;
22711;SDS011;11523;50.390;8.072;2023-04-03T04:49:10;6.43;;;2.00;;
22711;SDS011;11523;50.390;8.072;2023-04-03T04:51:36;4.20;;;1.40;;
22711;SDS011;11523;50.390;8.072;2023-04-03T04:54:02;6.10;;;1.90;;
22711;SDS011;11523;50.390;8.072;2023-04-03T04:56:28;6.00;;;1.60;;
22711;SDS011;11523;50.390;8.072;2023-04-03T04:58:54;3.67;;;1.85;;
22711;SDS011;11523;50.390;8.072;2023-04-03T05:01:20;3.63;;;1.45;;
22711;SDS011;11523;50.390;8.072;2023-04-03T05:03:46;4.65;;;1.60;;
22711;SDS011;11523;50.390;8.072;2023-04-03T05:06:12;4.60;;;1.65;;
22711;SDS011;11523;50.390;8.072;2023-04-03T05:08:38;3.70;;;1.52;;
22711;SDS011;11523;50.390;8.072;2023-04-03T05:11:04;3.88;;;1.52;;
22711;SDS011;11523;50.390;8.072;2023-04-03T05:13:30;3.83;;;1.60;;
22711;SDS011;11523;50.390;8.072;2023-04-03T05:15:56;4.30;;;1.67;;
22711;SDS011;11523;50.390;8.072;2023-04-03T05:18:22;4.47;;;1.73;;
22711;SDS011;11523;50.390;8.072;2023-04-03T05:20:48;4.65;;;1.52;;
22711;SDS011;11523;50.390;8.072;2023-04-03T05:23:15;6.93;;;2.15;;
22711;SDS011;11523;50.390;8.072;2023-04-03T05:25:41;6.07;;;1.58;;
22711;SDS011;11523;50.390;8.072;2023-04-03T05:28:09;4.32;;;1.83;;
22711;SDS011;11523;50.390;8.072;2023-04-03T05:30:35;4.93;;;1.70;;
22711;SDS011;11523;50.390;8.072;2023-04-03T05:33:01;2.35;;;1.55;;
22711;SDS011;11523;50.390;8.072;2023-04-03T05:35:27;5.78;;;1.75;;
22711;SDS011;11523;50.390;8.072;2023-04-03T05:37:53;4.65;;;1.90;;
22711;SDS011;11523;50.390;8.072;2023-04-03T05:40:19;7.78;;;2.15;;
22711;SDS011;11523;50.390;8.072;2023-04-03T05:42:45;6.07;;;1.92;;
22711;SDS011;11523;50.390;8.072;2023-04-03T05:45:11;6.25;;;1.88;;
22711;SDS011;11523;50.390;8.072;2023-04-03T05:47:37;3.92;;;1.60;;
22711;SDS011;11523;50.390;8.072;2023-04-03T05:50:03;3.83;;;1.75;;
22711;SDS011;11523;50.390;8.072;2023-04-03T05:52:30;6.18;;;1.92;;
22711;SDS011;11523;50.390;8.072;2023-04-03T05:54:58;2.50;;;1.73;;
22711;SDS011;11523;50.390;8.072;2023-04-03T05:57:24;4.18;;;2.03;;
22711;SDS011;11523;50.390;8.072;2023-04-03T05:59:50;7.40;;;2.25;;
22711;SDS011;11523;50.390;8.072;2023-04-03T06:02:17;4.63;;;1.92;;
22711;SDS011;11523;50.390;8.072;2023-04-03T06:04:44;5.43;;;2.20;;
22711;SDS011;11523;50.390;8.072;2023-04-03T06:07:12;4.97;;;2.13;;
22711;SDS011;11523;50.390;8.072;2023-04-03T06:09:38;4.95;;;1.77;;
22711;SDS011;11523;50.390;8.072;2023-04-03T06:12:04;4.97;;;1.70;;
22711;SDS011;11523;50.390;8.072;2023-04-03T06:14:31;5.15;;;2.17;;
22711;SDS011;11523;50.390;8.072;2023-04-03T06:16:57;3.75;;;1.83;;
22711;SDS011;11523;50.390;8.072;2023-04-03T06:19:23;6.03;;;1.83;;
22711;SDS011;11523;50.390;8.072;2023-04-03T06:21:49;5.93;;;1.83;;
22711;SDS011;11523;50.390;8.072;2023-04-03T06:24:15;4.80;;;2.28;;
22711;SDS011;11523;50.390;8.072;2023-04-03T06:26:42;5.43;;;2.10;;
22711;SDS011;11523;50.390;8.072;2023-04-03T06:29:08;6.32;;;2.28;;
22711;SDS011;11523;50.390;8.072;2023-04-03T06:31:34;3.97;;;1.92;;
22711;SDS011;11523;50.390;8.072;2023-04-03T06:34:01;4.30;;;1.88;;
22711;SDS011;11523;50.390;8.072;2023-04-03T06:36:27;5.07;;;1.73;;
22711;SDS011;11523;50.390;8.072;2023-04-03T06:38:53;2.30;;;1.48;;
22711;SDS011;11523;50.390;8.072;2023-04-03T06:41:20;4.32;;;1.77;;
22711;SDS011;11523;50.390;8.072;2023-04-03T06:43:46;4.20;;;1.83;;
22711;SDS011;11523;50.390;8.072;2023-04-03T06:46:14;3.25;;;1.77;;
22711;SDS011;11523;50.390;8.072;2023-04-03T06:48:40;5.93;;;2.17;;
22711;SDS011;11523;50.390;8.072;2023-04-03T06:51:07;5.65;;;2.17;;
22711;SDS011;11523;50.390;8.072;2023-04-03T06:53:34;6.93;;;1.92;;
22711;SDS011;11523;50.390;8.072;2023-04-03T06:56:00;5.72;;;1.88;;
22711;SDS011;11523;50.390;8.072;2023-04-03T06:58:26;7.43;;;2.10;;
22711;SDS011;11523;50.390;8.072;2023-04-03T07:00:52;4.78;;;1.98;;
22711;SDS011;11523;50.390;8.072;2023-04-03T07:03:17;4.13;;;1.90;;
22711;SDS011;11523;50.390;8.072;2023-04-03T07:05:43;9.13;;;2.13;;
22711;SDS011;11523;50.390;8.072;2023-04-03T07:08:09;5.20;;;2.00;;
22711;SDS011;11523;50.390;8.072;2023-04-03T07:10:37;3.75;;;2.10;;
22711;SDS011;11523;50.390;8.072;2023-04-03T07:13:03;6.00;;;2.10;;
22711;SDS011;11523;50.390;8.072;2023-04-03T07:15:29;5.95;;;2.50;;
22711;SDS011;11523;50.390;8.072;2023-04-03T07:17:55;7.93;;;2.75;;
22711;SDS011;11523;50.390;8.072;2023-04-03T07:20:21;6.75;;;2.72;;
22711;SDS011;11523;50.390;8.072;2023-04-03T07:22:47;9.27;;;2.55;;
22711;SDS011;11523;50.390;8.072;2023-04-03T07:25:13;5.43;;;2.05;;
22711;SDS011;11523;50.390;8.072;2023-04-03T07:27:38;5.32;;;1.98;;
22711;SDS011;11523;50.390;8.072;2023-04-03T07:30:05;5.63;;;2.28;;
22711;SDS011;11523;50.390;8.072;2023-04-03T07:32:31;4.78;;;2.50;;
22711;SDS011;11523;50.390;8.072;2023-04-03T07:35:04;5.57;;;2.03;;
22711;SDS011;11523;50.390;8.072;2023-04-03T07:37:30;8.27;;;1.98;;
22711;SDS011;11523;50.390;8.072;2023-04-03T07:39:57;7.78;;;1.83;;
22711;SDS011;11523;50.390;8.072;2023-04-03T07:42:24;5.38;;;2.10;;
22711;SDS011;11523;50.390;8.072;2023-04-03T07:44:52;4.53;;;1.95;;
22711;SDS011;11523;50.390;8.072;2023-04-03T07:47:18;6.07;;;1.92;;
22711;SDS011;11523;50.390;8.072;2023-04-03T07:49:45;4.78;;;2.28;;
22711;SDS011;11523;50.390;8.072;2023-04-03T07:52:11;7.45;;;2.67;;
22711;SDS011;11523;50.390;8.072;2023-04-03T07:54:37;6.90;;;3.03;;
22711;SDS011;11523;50.390;8.072;2023-04-03T07:57:03;7.78;;;2.53;;
22711;SDS011;11523;50.390;8.072;2023-04-03T07:59:36;8.02;;;2.60;;
22711;SDS011;11523;50.390;8.072;2023-04-03T08:02:02;4.68;;;2.50;;
22711;SDS011;11523;50.390;8.072;2023-04-03T08:04:29;4.68;;;2.60;;
22711;SDS011;11523;50.390;8.072;2023-04-03T08:06:55;5.18;;;2.15;;
22711;SDS011;11523;50.390;8.072;2023-04-03T08:09:21;8.63;;;2.47;;
22711;SDS011;11523;50.390;8.072;2023-04-03T08:11:47;4.10;;;2.17;;
22711;SDS011;11523;50.390;8.072;2023-04-03T08:14:13;4.25;;;2.38;;
22711;SDS011;11523;50.390;8.072;2023-04-03T08:16:44;4.70;;;2.40;;
22711;SDS011;11523;50.390;8.072;2023-04-03T08:19:10;9.23;;;2.35;;
22711;SDS011;11523;50.390;8.072;2023-04-03T08:21:39;4.60;;;2.00;;
22711;SDS011;11523;50.390;8.072;2023-04-03T08:24:06;6.53;;;2.20;;
22711;SDS011;11523;50.390;8.072;2023-04-03T08:26:32;6.40;;;2.53;;
22711;SDS011;11523;50.390;8.072;2023-04-03T08:28:58;6.13;;;2.40;;
22711;SDS011;11523;50.390;8.072;2023-04-03T08:31:24;4.35;;;2.10;;
22711;SDS011;11523;50.390;8.072;2023-04-03T08:33:50;3.83;;;2.55;;
22711;SDS011;11523;50.390;8.072;2023-04-03T08:36:17;6.03;;;2.40;;
22711;SDS011;11523;50.390;8.072;2023-04-03T08:38:44;4.75;;;2.35;;
22711;SDS011;11523;50.390;8.072;2023-04-03T08:43:53;4.88;;;2.50;;
22711;SDS011;11523;50.390;8.072;2023-04-03T08:48:48;3.72;;;2.13;;
22711;SDS011;11523;50.390;8.072;2023-04-03T08:51:15;6.13;;;2.30;;
22711;SDS011;11523;50.390;8.072;2023-04-03T08:53:44;7.68;;;2.63;;
22711;SDS011;11523;50.390;8.072;2023-04-03T08:56:11;4.35;;;2.00;;
22711;SDS011;11523;50.390;8.072;2023-04-03T08:58:41;9.18;;;2.60;;
22711;SDS011;11523;50.390;8.072;2023-04-03T09:01:19;6.30;;;2.58;;
22711;SDS011;11523;50.390;8.072;2023-04-03T09:03:46;5.53;;;2.42;;
22711;SDS011;11523;50.390;8.072;2023-04-03T09:06:27;4.47;;;2.05;;
22711;SDS011;11523;50.390;8.072;2023-04-03T09:14:33;5.85;;;2.15;;
22711;SDS011;11523;50.390;8.072;2023-04-03T09:19:52;4.00;;;2.20;;
22711;SDS011;11523;50.390;8.072;2023-04-03T09:22:22;5.03;;;2.30;;
22711;SDS011;11523;50.390;8.072;2023-04-03T09:24:55;4.72;;;2.50;;
22711;SDS011;11523;50.390;8.072;2023-04-03T09:27:22;4.45;;;1.92;;
22711;SDS011;11523;50.390;8.072;2023-04-03T09:29:48;5.80;;;2.10;;
22711;SDS011;11523;50.390;8.072;2023-04-03T09:32:19;6.40;;;2.67;;
22711;SDS011;11523;50.390;8.072;2023-04-03T09:34:47;4.82;;;2.25;;
22711;SDS011;11523;50.390;8.072;2023-04-03T09:37:33;4.63;;;2.33;;
22711;SDS011;11523;50.390;8.072;2023-04-03T09:40:00;4.85;;;1.95;;
22711;SDS011;11523;50.390;8.072;2023-04-03T09:42:26;4.53;;;2.22;;
22711;SDS011;11523;50.390;8.072;2023-04-03T09:44:59;6.05;;;2.10;;
22711;SDS011;11523;50.390;8.072;2023-04-03T09:47:26;5.47;;;2.22;;
22711;SDS011;11523;50.390;8.072;2023-04-03T09:52:34;5.30;;;2.05;;
22711;SDS011;11523;50.390;8.072;2023-04-03T09:55:16;6.35;;;2.10;;
22711;SDS011;11523;50.390;8.072;2023-04-03T09:57:43;3.97;;;2.10;;
22711;SDS011;11523;50.390;8.072;2023-04-03T10:00:20;8.98;;;2.33;;
22711;SDS011;11523;50.390;8.072;2023-04-03T10:02:47;6.25;;;2.22;;
22711;SDS011;11523;50.390;8.072;2023-04-03T10:05:26;5.47;;;1.83;;
22711;SDS011;11523;50.390;8.072;2023-04-03T10:07:52;3.60;;;1.90;;
22711;SDS011;11523;50.390;8.072;2023-04-03T10:10:32;5.15;;;1.95;;
22711;SDS011;11523;50.390;8.072;2023-04-03T10:13:05;5.72;;;1.98;;
22711;SDS011;11523;50.390;8.072;2023-04-03T10:15:34;5.25;;;2.42;;
22711;SDS011;11523;50.390;8.072;2023-04-03T10:18:02;6.57;;;1.83;;
22711;SDS011;11523;50.390;8.072;2023-04-03T10:20:31;5.05;;;2.00;;
22711;SDS011;11523;50.390;8.072;2023-04-03T10:25:50;4.90;;;2.00;;
22711;SDS011;11523;50.390;8.072;2023-04-03T10:33:20;4.57;;;1.77;;
22711;SDS011;11523;50.390;8.072;2023-04-03T10:38:42;2.67;;;1.60;;
22711;SDS011;11523;50.390;8.072;2023-04-03T10:41:12;2.33;;;1.40;;
22711;SDS011;11523;50.390;8.072;2023-04-03T10:46:33;6.32;;;1.73;;
22711;SDS011;11523;50.390;8.072;2023-04-03T10:51:31;3.80;;;1.80;;
22711;SDS011;11523;50.390;8.072;2023-04-03T10:59:07;1.75;;;1.30;;
22711;SDS011;11523;50.390;8.072;2023-04-03T11:01:38;3.15;;;1.63;;
22711;SDS011;11523;50.390;8.072;2023-04-03T11:04:06;2.97;;;1.70;;
22711;SDS011;11523;50.390;8.072;2023-04-03T11:06:38;2.75;;;1.50;;
22711;SDS011;11523;50.390;8.072;2023-04-03T11:09:07;3.40;;;2.22;;
22711;SDS011;11523;50.390;8.072;2023-04-03T11:11:40;5.03;;;1.73;;
22711;SDS011;11523;50.390;8.072;2023-04-03T11:16:50;2.20;;;1.60;;
22711;SDS011;11523;50.390;8.072;2023-04-03T11:24:33;2.63;;;1.75;;
22711;SDS011;11523;50.390;8.072;2023-04-03T11:27:01;3.20;;;1.92;;
22711;SDS011;11523;50.390;8.072;2023-04-03T11:29:34;2.63;;;1.88;;
22711;SDS011;11523;50.390;8.072;2023-04-03T11:34:48;4.75;;;1.88;;
22711;SDS011;11523;50.390;8.072;2023-04-03T11:39:50;4.28;;;1.70;;
22711;SDS011;11523;50.390;8.072;2023-04-03T11:42:30;1.95;;;1.60;;
22711;SDS011;11523;50.390;8.072;2023-04-03T11:45:17;1.95;;;1.35;;
22711;SDS011;11523;50.390;8.072;2023-04-03T11:47:55;3.10;;;1.60;;
22711;SDS011;11523;50.390;8.072;2023-04-03T11:53:03;2.35;;;1.40;;
22711;SDS011;11523;50.390;8.072;2023-04-03T12:13:41;3.63;;;1.80;;
22711;SDS011;11523;50.390;8.072;2023-04-03T12:16:21;2.47;;;1.80;;
22711;SDS011;11523;50.390;8.072;2023-04-03T12:21:21;2.67;;;1.80;;
22711;SDS011;11523;50.390;8.072;2023-04-03T12:28:54;3.22;;;1.90;;
22711;SDS011;11523;50.390;8.072;2023-04-03T12:31:22;3.25;;;1.70;;
22711;SDS011;11523;50.390;8.072;2023-04-03T12:46:47;2.05;;;1.50;;
22711;SDS011;11523;50.390;8.072;2023-04-03T12:49:30;3.38;;;1.60;;
22711;SDS011;11523;50.390;8.072;2023-04-03T12:51:59;3.05;;;1.63;;
22711;SDS011;11523;50.390;8.072;2023-04-03T12:56:51;1.92;;;1.40;;
22711;SDS011;11523;50.390;8.072;2023-04-03T12:59:21;3.35;;;1.60;;
22711;SDS011;11523;50.390;8.072;2023-04-03T13:01:58;3.85;;;1.60;;
22711;SDS011;11523;50.390;8.072;2023-04-03T13:04:24;4.25;;;1.73;;
22711;SDS011;11523;50.390;8.072;2023-04-03T13:06:50;3.05;;;1.70;;
22711;SDS011;11523;50.390;8.072;2023-04-03T13:09:21;3.17;;;1.27;;
22711;SDS011;11523;50.390;8.072;2023-04-03T13:11:47;3.10;;;1.55;;
22711;SDS011;11523;50.390;8.072;2023-04-03T13:14:18;2.80;;;1.45;;
22711;SDS011;11523;50.390;8.072;2023-04-03T13:19:30;5.45;;;1.88;;
22711;SDS011;11523;50.390;8.072;2023-04-03T13:22:01;2.70;;;1.60;;
22711;SDS011;11523;50.390;8.072;2023-04-03T13:24:28;3.85;;;1.20;;
22711;SDS011;11523;50.390;8.072;2023-04-03T13:26:54;1.55;;;1.17;;
22711;SDS011;11523;50.390;8.072;2023-04-03T13:29:26;2.10;;;1.38;;
22711;SDS011;11523;50.390;8.072;2023-04-03T13:31:53;2.28;;;1.50;;
22711;SDS011;11523;50.390;8.072;2023-04-03T13:34:19;2.85;;;1.30;;
22711;SDS011;11523;50.390;8.072;2023-04-03T13:36:59;2.80;;;1.23;;
22711;SDS011;11523;50.390;8.072;2023-04-03T13:41:55;2.47;;;1.60;;
22711;SDS011;11523;50.390;8.072;2023-04-03T13:46:52;3.13;;;1.40;;
22711;SDS011;11523;50.390;8.072;2023-04-03T13:51:44;2.85;;;1.77;;
22711;SDS011;11523;50.390;8.072;2023-04-03T13:54:16;2.55;;;1.55;;
22711;SDS011;11523;50.390;8.072;2023-04-03T13:56:54;3.47;;;1.30;;
22711;SDS011;11523;50.390;8.072;2023-04-03T13:59:27;3.90;;;1.45;;
22711;SDS011;11523;50.390;8.072;2023-04-03T14:01:57;2.38;;;1.42;;
22711;SDS011;11523;50.390;8.072;2023-04-03T14:04:43;3.70;;;1.50;;
22711;SDS011;11523;50.390;8.072;2023-04-03T14:07:10;3.15;;;1.20;;
22711;SDS011;11523;50.390;8.072;2023-04-03T14:09:36;2.33;;;1.45;;
22711;SDS011;11523;50.390;8.072;2023-04-03T14:12:05;2.35;;;1.60;;
22711;SDS011;11523;50.390;8.072;2023-04-03T14:14:33;2.38;;;1.48;;
22711;SDS011;11523;50.390;8.072;2023-04-03T14:17:01;2.15;;;1.50;;
22711;SDS011;11523;50.390;8.072;2023-04-03T14:19:29;3.53;;;1.65;;
22711;SDS011;11523;50.390;8.072;2023-04-03T14:21:55;2.25;;;1.20;;
22711;SDS011;11523;50.390;8.072;2023-04-03T14:24:22;3.08;;;1.60;;
22711;SDS011;11523;50.390;8.072;2023-04-03T14:26:50;2.95;;;1.30;;
22711;SDS011;11523;50.390;8.072;2023-04-03T14:29:16;2.72;;;1.33;;
22711;SDS011;11523;50.390;8.072;2023-04-03T14:31:43;2.55;;;1.42;;
22711;SDS011;11523;50.390;8.072;2023-04-03T14:34:10;2.88;;;1.17;;
22711;SDS011;11523;50.390;8.072;2023-04-03T14:36:36;3.33;;;1.40;;
22711;SDS011;11523;50.390;8.072;2023-04-03T14:39:03;3.05;;;1.55;;
22711;SDS011;11523;50.390;8.072;2023-04-03T14:41:29;3.38;;;1.20;;
22711;SDS011;11523;50.390;8.072;2023-04-03T14:43:55;3.30;;;1.20;;
22711;SDS011;11523;50.390;8.072;2023-04-03T14:46:38;3.75;;;1.40;;
22711;SDS011;11523;50.390;8.072;2023-04-03T14:49:12;2.35;;;1.30;;
22711;SDS011;11523;50.390;8.072;2023-04-03T14:51:39;1.88;;;1.20;;
22711;SDS011;11523;50.390;8.072;2023-04-03T14:54:05;3.28;;;1.48;;
22711;SDS011;11523;50.390;8.072;2023-04-03T14:56:33;2.80;;;1.40;;
22711;SDS011;11523;50.390;8.072;2023-04-03T14:59:00;3.05;;;1.38;;
22711;SDS011;11523;50.390;8.072;2023-04-03T15:01:27;2.60;;;1.33;;
22711;SDS011;11523;50.390;8.072;2023-04-03T15:03:53;2.50;;;1.40;;
22711;SDS011;11523;50.390;8.072;2023-04-03T15:06:19;3.30;;;1.38;;
22711;SDS011;11523;50.390;8.072;2023-04-03T15:08:46;2.42;;;1.20;;
22711;SDS011;11523;50.390;8.072;2023-04-03T15:11:13;3.55;;;1.33;;
22711;SDS011;11523;50.390;8.072;2023-04-03T15:13:39;4.63;;;1.70;;
22711;SDS011;11523;50.390;8.072;2023-04-03T15:16:06;2.85;;;1.33;;
22711;SDS011;11523;50.390;8.072;2023-04-03T15:18:37;4.07;;;1.30;;
22711;SDS011;11523;50.390;8.072;2023-04-03T15:21:04;4.28;;;1.55;;
22711;SDS011;11523;50.390;8.072;2023-04-03T15:23:30;3.42;;;1.73;;
22711;SDS011;11523;50.390;8.072;2023-04-03T15:25:56;3.40;;;1.33;;
22711;SDS011;11523;50.390;8.072;2023-04-03T15:28:33;5.75;;;1.60;;
22711;SDS011;11523;50.390;8.072;2023-04-03T15:31:06;2.85;;;1.67;;
22711;SDS011;11523;50.390;8.072;2023-04-03T15:33:32;3.30;;;1.27;;
22711;SDS011;11523;50.390;8.072;2023-04-03T15:35:59;3.38;;;1.60;;
22711;SDS011;11523;50.390;8.072;2023-04-03T15:38:25;2.53;;;1.30;;
22711;SDS011;11523;50.390;8.072;2023-04-03T15:40:51;2.42;;;1.40;;
22711;SDS011;11523;50.390;8.072;2023-04-03T15:43:17;2.55;;;1.48;;
22711;SDS011;11523;50.390;8.072;2023-04-03T15:45:43;2.90;;;1.30;;
22711;SDS011;11523;50.390;8.072;2023-04-03T15:48:09;3.80;;;1.27;;
22711;SDS011;11523;50.390;8.072;2023-04-03T15:50:35;3.58;;;1.40;;
22711;SDS011;11523;50.390;8.072;2023-04-03T15:53:02;2.08;;;1.30;;
22711;SDS011;11523;50.390;8.072;2023-04-03T15:55:28;5.10;;;1.63;;
22711;SDS011;11523;50.390;8.072;2023-04-03T15:57:55;3.05;;;1.30;;
22711;SDS011;11523;50.390;8.072;2023-04-03T16:00:21;2.63;;;1.38;;
22711;SDS011;11523;50.390;8.072;2023-04-03T16:02:48;1.83;;;1.30;;
22711;SDS011;11523;50.390;8.072;2023-04-03T16:05:15;4.15;;;1.50;;
22711;SDS011;11523;50.390;8.072;2023-04-03T16:07:42;4.45;;;1.70;;
22711;SDS011;11523;50.390;8.072;2023-04-03T16:10:09;5.30;;;2.03;;
22711;SDS011;11523;50.390;8.072;2023-04-03T16:12:36;2.78;;;1.27;;
22711;SDS011;11523;50.390;8.072;2023-04-03T16:15:02;3.17;;;1.30;;
22711;SDS011;11523;50.390;8.072;2023-04-03T16:17:28;4.05;;;1.40;;
22711;SDS011;11523;50.390;8.072;2023-04-03T16:19:55;2.95;;;1.30;;
22711;SDS011;11523;50.390;8.072;2023-04-03T16:22:21;3.67;;;1.40;;
22711;SDS011;11523;50.390;8.072;2023-04-03T16:24:49;4.20;;;1.30;;
22711;SDS011;11523;50.390;8.072;2023-04-03T16:27:15;2.42;;;1.48;;
22711;SDS011;11523;50.390;8.072;2023-04-03T16:29:41;2.08;;;1.50;;
22711;SDS011;11523;50.390;8.072;2023-04-03T16:32:07;1.80;;;1.25;;
22711;SDS011;11523;50.390;8.072;2023-04-03T16:34:33;2.75;;;1.60;;
22711;SDS011;11523;50.390;8.072;2023-04-03T16:36:59;2.63;;;1.58;;
22711;SDS011;11523;50.390;8.072;2023-04-03T16:39:25;2.20;;;1.35;;
22711;SDS011;11523;50.390;8.072;2023-04-03T16:41:51;4.28;;;1.80;;
22711;SDS011;11523;50.390;8.072;2023-04-03T16:44:17;4.75;;;1.42;;
22711;SDS011;11523;50.390;8.072;2023-04-03T16:46:43;3.83;;;1.52;;
22711;SDS011;11523;50.390;8.072;2023-04-03T16:49:09;3.40;;;1.55;;
22711;SDS011;11523;50.390;8.072;2023-04-03T16:51:35;2.50;;;1.40;;
22711;SDS011;11523;50.390;8.072;2023-04-03T16:54:01;2.28;;;1.20;;
22711;SDS011;11523;50.390;8.072;2023-04-03T16:56:27;3.13;;;1.55;;
22711;SDS011;11523;50.390;8.072;2023-04-03T16:58:53;6.65;;;1.70;;
22711;SDS011;11523;50.390;8.072;2023-04-03T17:01:20;5.78;;;1.60;;
22711;SDS011;11523;50.390;8.072;2023-04-03T17:03:46;3.15;;;1.45;;
22711;SDS011;11523;50.390;8.072;2023-04-03T17:06:12;2.28;;;1.58;;
22711;SDS011;11523;50.390;8.072;2023-04-03T17:08:41;2.33;;;1.45;;
22711;SDS011;11523;50.390;8.072;2023-04-03T17:11:07;1.48;;;1.10;;
22711;SDS011;11523;50.390;8.072;2023-04-03T17:13:32;3.85;;;1.35;;
22711;SDS011;11523;50.390;8.072;2023-04-03T17:15:59;2.25;;;1.30;;
22711;SDS011;11523;50.390;8.072;2023-04-03T17:18:26;2.83;;;1.50;;
22711;SDS011;11523;50.390;8.072;2023-04-03T17:20:52;3.17;;;1.40;;
22711;SDS011;11523;50.390;8.072;2023-04-03T17:23:18;3.92;;;1.40;;
22711;SDS011;11523;50.390;8.072;2023-04-03T17:25:44;2.35;;;1.45;;
22711;SDS011;11523;50.390;8.072;2023-04-03T17:28:10;2.30;;;1.38;;
22711;SDS011;11523;50.390;8.072;2023-04-03T17:30:36;3.33;;;1.67;;
22711;SDS011;11523;50.390;8.072;2023-04-03T17:33:17;2.92;;;1.30;;
22711;SDS011;11523;50.390;8.072;2023-04-03T17:35:43;4.28;;;1.70;;
22711;SDS011;11523;50.390;8.072;2023-04-03T17:38:08;3.67;;;1.30;;
22711;SDS011;11523;50.390;8.072;2023-04-03T17:40:34;3.10;;;1.80;;
22711;SDS011;11523;50.390;8.072;2023-04-03T17:43:00;5.40;;;1.58;;
22711;SDS011;11523;50.390;8.072;2023-04-03T17:45:26;4.18;;;1.80;;
22711;SDS011;11523;50.390;8.072;2023-04-03T17:47:52;5.20;;;1.60;;
22711;SDS011;11523;50.390;8.072;2023-04-03T17:50:18;2.65;;;1.27;;
22711;SDS011;11523;50.390;8.072;2023-04-03T17:52:44;2.92;;;1.65;;
22711;SDS011;11523;50.390;8.072;2023-04-03T17:55:10;3.47;;;1.77;;
22711;SDS011;11523;50.390;8.072;2023-04-03T17:57:41;3.92;;;1.58;;
22711;SDS011;11523;50.390;8.072;2023-04-03T18:00:07;2.47;;;1.83;;
22711;SDS011;11523;50.390;8.072;2023-04-03T18:02:33;4.43;;;1.80;;
22711;SDS011;11523;50.390;8.072;2023-04-03T18:04:59;4.38;;;1.60;;
22711;SDS011;11523;50.390;8.072;2023-04-03T18:07:26;3.55;;;1.50;;
22711;SDS011;11523;50.390;8.072;2023-04-03T18:09:52;2.05;;;1.30;;
22711;SDS011;11523;50.390;8.072;2023-04-03T18:12:19;3.10;;;1.60;;
22711;SDS011;11523;50.390;8.072;2023-04-03T18:14:45;3.80;;;1.70;;
22711;SDS011;11523;50.390;8.072;2023-04-03T18:17:11;2.90;;;1.77;;
22711;SDS011;11523;50.390;8.072;2023-04-03T18:19:37;3.25;;;1.75;;
22711;SDS011;11523;50.390;8.072;2023-04-03T18:22:04;5.00;;;1.80;;
22711;SDS011;11523;50.390;8.072;2023-04-03T18:24:31;4.13;;;1.70;;
22711;SDS011;11523;50.390;8.072;2023-04-03T18:26:59;4.57;;;1.67;;
22711;SDS011;11523;50.390;8.072;2023-04-03T18:29:27;5.20;;;1.85;;
22711;SDS011;11523;50.390;8.072;2023-04-03T18:31:53;4.75;;;3.20;;
22711;SDS011;11523;50.390;8.072;2023-04-03T18:34:27;3.75;;;2.00;;
22711;SDS011;11523;50.390;8.072;2023-04-03T18:36:53;3.88;;;2.08;;
22711;SDS011;11523;50.390;8.072;2023-04-03T18:39:19;3.45;;;1.50;;
22711;SDS011;11523;50.390;8.072;2023-04-03T18:41:45;3.55;;;1.70;;
22711;SDS011;11523;50.390;8.072;2023-04-03T18:44:12;4.78;;;2.15;;
22711;SDS011;11523;50.390;8.072;2023-04-03T18:46:39;4.55;;;1.75;;
22711;SDS011;11523;50.390;8.072;2023-04-03T18:49:05;5.93;;;1.70;;
22711;SDS011;11523;50.390;8.072;2023-04-03T18:51:32;2.97;;;1.90;;
22711;SDS011;11523;50.390;8.072;2023-04-03T18:53:58;5.68;;;2.30;;
22711;SDS011;11523;50.390;8.072;2023-04-03T18:56:24;4.07;;;2.17;;
22711;SDS011;11523;50.390;8.072;2023-04-03T18:58:50;1.50;;;1.33;;
22711;SDS011;11523;50.390;8.072;2023-04-03T19:01:16;4.38;;;1.67;;
22711;SDS011;11523;50.390;8.072;2023-04-03T19:03:42;3.85;;;2.05;;